Time;durP1;ratioP1;P1;durP2;ratioP2;P2;SDS_P1;SDS_P2;PMS_P1;PMS_P2;Temp;Humidity;BMP_temperature;BMP_pressure;BME280_temperature;BME280_humidity;BME280_pressure;Samples;Min_cycle;Max_cycle;Signal;HPM_P1;HPM_P2
2021/07/21 00:00:31;;;;;;;19.60;15.50;;;21.00;1.00;;;;;;5057262;28;20658;-79
2021/07/21 00:02:58;;;;;;;19.03;14.77;;;21.00;1.00;;;;;;5057907;28;20173;-80
2021/07/21 00:05:28;;;;;;;19.40;15.33;;;20.80;1.00;;;;;;5057182;28;20213;-79
2021/07/21 00:07:54;;;;;;;18.17;14.43;;;21.00;1.00;;;;;;5057178;28;20234;-80
2021/07/21 00:10:23;;;;;;;18.60;13.77;;;20.90;1.00;;;;;;5055925;28;20202;-79
2021/07/21 00:15:38;;;;;;;17.43;14.10;;;20.60;1.00;;;;;;5057623;28;20591;-79
2021/07/21 00:18:19;;;;;;;18.33;13.60;;;20.70;1.00;;;;;;5057305;28;20158;-78
2021/07/21 00:20:45;;;;;;;16.80;13.07;;;20.60;1.00;;;;;;5056820;28;20169;-80
2021/07/21 00:23:12;;;;;;;20.47;14.60;;;20.60;1.00;;;;;;5057142;28;20665;-79
2021/07/21 00:25:38;;;;;;;18.57;14.10;;;20.60;1.00;;;;;;5057049;28;20198;-79
2021/07/21 00:28:03;;;;;;;19.63;14.37;;;20.60;1.00;;;;;;5057396;28;20177;-80
2021/07/21 00:30:29;;;;;;;18.83;14.10;;;20.50;1.00;;;;;;5057735;28;20170;-79
2021/07/21 00:32:56;;;;;;;18.07;13.63;;;20.40;1.00;;;;;;5057916;28;20158;-78
2021/07/21 00:35:22;;;;;;;17.73;13.73;;;20.50;1.00;;;;;;5057478;28;20545;-78
2021/07/21 00:37:48;;;;;;;18.27;13.53;;;20.50;1.00;;;;;;5056235;28;20169;-79
2021/07/21 00:40:16;;;;;;;15.50;13.10;;;20.50;1.00;;;;;;5058561;28;20196;-78
2021/07/21 00:42:45;;;;;;;18.80;14.10;;;20.50;1.00;;;;;;5058348;28;20608;-79
2021/07/21 00:45:11;;;;;;;22.37;14.80;;;20.70;1.00;;;;;;5060041;28;20244;-78
2021/07/21 00:47:38;;;;;;;19.17;14.47;;;20.70;1.00;;;;;;5062344;28;20177;-79
2021/07/21 00:50:05;;;;;;;17.67;14.03;;;20.80;1.00;;;;;;5056265;28;20232;-80
2021/07/21 00:52:36;;;;;;;18.57;13.77;;;20.70;1.00;;;;;;5054797;28;20180;-79
2021/07/21 00:55:05;;;;;;;16.83;13.70;;;20.90;1.00;;;;;;5054288;28;20217;-80
2021/07/21 00:57:31;;;;;;;17.33;13.43;;;20.80;1.00;;;;;;5055918;28;20260;-79
2021/07/21 00:59:57;;;;;;;18.03;13.67;;;20.80;1.00;;;;;;5056163;28;20259;-79
2021/07/21 01:02:24;;;;;;;17.47;13.33;;;20.80;1.00;;;;;;5056220;28;20173;-80
2021/07/21 01:04:49;;;;;;;17.20;13.70;;;20.90;1.00;;;;;;5055157;28;20191;-82
2021/07/21 01:07:15;;;;;;;17.73;13.97;;;21.00;99.90;;;;;;5056848;28;20178;-79
2021/07/21 01:09:45;;;;;;;15.83;12.47;;;21.00;99.90;;;;;;5055863;28;20177;-79
2021/07/21 01:12:29;;;;;;;18.70;13.27;;;21.20;99.90;;;;;;5056027;28;20202;-79
2021/07/21 01:15:04;;;;;;;17.80;13.13;;;21.10;99.90;;;;;;5056602;28;20249;-79
2021/07/21 01:18:03;;;;;;;17.57;13.10;;;21.10;99.90;;;;;;5056262;28;20293;-78
2021/07/21 01:20:53;;;;;;;19.47;14.07;;;20.90;99.90;;;;;;5070568;28;20193;-78
2021/07/21 01:23:52;;;;;;;19.97;13.30;;;21.00;99.90;;;;;;5069694;28;20195;-79
2021/07/21 01:26:25;;;;;;;18.50;12.20;;;20.60;99.90;;;;;;5055684;28;20689;-79
2021/07/21 01:28:53;;;;;;;16.13;11.93;;;20.50;99.90;;;;;;5056241;28;20177;-80
2021/07/21 01:31:26;;;;;;;20.40;13.73;;;20.40;1.00;;;;;;5056023;28;20250;-80
2021/07/21 01:33:56;;;;;;;19.23;12.63;;;20.10;1.00;;;;;;5055986;28;20169;-81
2021/07/21 01:36:32;;;;;;;18.87;12.87;;;20.20;1.00;;;;;;5055718;28;20170;-79
2021/07/21 01:39:03;;;;;;;17.80;13.30;;;20.30;1.00;;;;;;5054033;28;20185;-79
2021/07/21 01:41:34;;;;;;;18.57;13.30;;;20.30;1.00;;;;;;5055459;28;20635;-80
2021/07/21 01:44:06;;;;;;;16.97;13.30;;;20.40;1.00;;;;;;5055617;28;20244;-77
2021/07/21 01:46:32;;;;;;;18.50;12.80;;;20.30;1.00;;;;;;5055248;28;20261;-79
2021/07/21 01:49:00;;;;;;;17.47;12.30;;;20.50;1.00;;;;;;5055554;28;20166;-79
2021/07/21 01:51:29;;;;;;;16.43;13.40;;;20.60;1.00;;;;;;5055366;28;20201;-78
2021/07/21 01:53:56;;;;;;;14.03;10.97;;;20.60;1.00;;;;;;5054766;28;20209;-79
2021/07/21 01:56:22;;;;;;;16.17;12.50;;;20.50;1.00;;;;;;5055090;28;20179;-78
2021/07/21 01:58:56;;;;;;;16.40;12.60;;;20.50;1.00;;;;;;5055870;28;20200;-79
2021/07/21 02:01:27;;;;;;;15.67;12.17;;;20.30;1.00;;;;;;5055823;28;20166;-79
2021/07/21 02:03:56;;;;;;;16.67;12.57;;;20.30;1.00;;;;;;5055873;28;20284;-78
2021/07/21 02:06:22;;;;;;;16.37;12.23;;;20.10;1.00;;;;;;5053396;28;20236;-79
2021/07/21 02:08:49;;;;;;;13.70;11.13;;;20.00;1.00;;;;;;5053194;28;20532;-78
2021/07/21 02:11:15;;;;;;;15.90;11.60;;;19.90;1.00;;;;;;5054458;28;20253;-79
2021/07/21 02:13:42;;;;;;;16.80;12.20;;;19.90;1.00;;;;;;5055137;28;20227;-77
2021/07/21 02:16:08;;;;;;;16.00;11.40;;;19.80;1.00;;;;;;5053987;28;20535;-78
2021/07/21 02:18:34;;;;;;;16.70;11.77;;;20.00;1.00;;;;;;5055093;28;20167;-79
2021/07/21 02:21:05;;;;;;;16.93;11.97;;;19.80;1.00;;;;;;5053914;28;20178;-79
2021/07/21 02:23:33;;;;;;;16.13;11.20;;;19.90;1.00;;;;;;5054579;28;20190;-80
2021/07/21 02:26:00;;;;;;;15.67;11.40;;;19.80;1.00;;;;;;5054710;28;20219;-79
2021/07/21 02:28:29;;;;;;;16.50;11.07;;;20.00;1.00;;;;;;5054837;28;20166;-79
2021/07/21 02:30:59;;;;;;;14.37;10.50;;;19.90;1.00;;;;;;5054807;28;20169;-79
2021/07/21 02:33:33;;;;;;;15.67;11.60;;;19.80;1.00;;;;;;5054478;28;20169;-79
2021/07/21 02:35:59;;;;;;;12.33;10.67;;;19.80;1.00;;;;;;5054483;28;20161;-80
2021/07/21 02:38:26;;;;;;;14.00;10.67;;;19.80;1.00;;;;;;5054117;28;20699;-79
2021/07/21 02:40:51;;;;;;;14.70;10.93;;;19.90;99.90;;;;;;5052970;28;20166;-79
2021/07/21 02:43:17;;;;;;;18.07;11.97;;;19.80;1.00;;;;;;5054295;28;20542;-80
2021/07/21 02:45:43;;;;;;;15.23;11.67;;;19.90;99.90;;;;;;5053295;28;20211;-79
2021/07/21 02:48:09;;;;;;;16.30;10.67;;;19.90;99.90;;;;;;5054074;28;20165;-79
2021/07/21 02:50:35;;;;;;;16.83;11.97;;;19.90;99.90;;;;;;5054234;28;20184;-79
2021/07/21 02:53:04;;;;;;;14.83;10.97;;;20.00;99.90;;;;;;5051916;28;20637;-78
2021/07/21 02:55:44;;;;;;;16.13;11.53;;;20.10;99.90;;;;;;5052337;28;20194;-79
2021/07/21 02:58:23;;;;;;;13.60;10.73;;;20.10;99.90;;;;;;5052535;28;20169;-80
2021/07/21 03:00:52;;;;;;;18.77;12.27;;;20.10;99.90;;;;;;5053782;28;20173;-79
2021/07/21 03:03:19;;;;;;;14.80;11.27;;;20.10;99.90;;;;;;5053592;28;20219;-79
2021/07/21 03:05:47;;;;;;;14.63;10.87;;;20.20;99.90;;;;;;5053659;28;20202;-78
2021/07/21 03:08:16;;;;;;;17.70;11.97;;;20.10;99.90;;;;;;5053997;28;20168;-78
2021/07/21 03:10:42;;;;;;;16.07;11.80;;;20.10;99.90;;;;;;5054261;28;20536;-78
2021/07/21 03:13:12;;;;;;;16.53;12.07;;;20.10;1.00;;;;;;5053879;28;20170;-79
2021/07/21 03:15:42;;;;;;;16.87;12.73;;;20.00;99.90;;;;;;5053000;28;20212;-79
2021/07/21 03:18:13;;;;;;;16.83;12.17;;;20.00;99.90;;;;;;5053752;28;20235;-80
2021/07/21 03:20:42;;;;;;;19.07;12.37;;;20.10;99.90;;;;;;5053281;28;20676;-80
2021/07/21 03:23:08;;;;;;;15.23;11.20;;;20.20;99.90;;;;;;5054430;28;20193;-77
2021/07/21 03:25:37;;;;;;;17.17;12.80;;;20.00;1.00;;;;;;5054161;28;20209;-79
2021/07/21 03:28:05;;;;;;;14.77;11.43;;;20.00;1.00;;;;;;5052898;28;20180;-80
2021/07/21 03:30:32;;;;;;;18.27;12.37;;;20.00;99.90;;;;;;5054506;28;20166;-79
2021/07/21 03:32:59;;;;;;;18.73;12.43;;;20.10;99.90;;;;;;5054944;28;20166;-79
2021/07/21 03:35:30;;;;;;;17.80;12.10;;;19.90;99.90;;;;;;5057987;28;20170;-77
2021/07/21 03:37:58;;;;;;;16.60;11.70;;;19.70;1.00;;;;;;5060188;28;20178;-77
2021/07/21 03:40:26;;;;;;;18.43;12.50;;;19.80;1.00;;;;;;5066304;28;20193;-78
2021/07/21 03:42:53;;;;;;;16.60;11.93;;;19.90;1.00;;;;;;5071561;28;20223;-78
2021/07/21 03:45:22;;;;;;;18.10;13.53;;;19.90;1.00;;;;;;5067931;28;20198;-78
2021/07/21 03:47:48;;;;;;;21.43;16.03;;;19.70;1.00;;;;;;5065252;28;20165;-79
2021/07/21 03:50:18;;;;;;;18.20;15.03;;;19.50;1.00;;;;;;5065195;28;20165;-77
2021/07/21 03:52:46;;;;;;;20.20;15.80;;;19.40;1.00;;;;;;5060489;28;20629;-78
2021/07/21 03:55:14;;;;;;;22.20;16.30;;;19.20;1.00;;;;;;5056145;28;20197;-81
2021/07/21 03:57:40;;;;;;;22.43;16.77;;;19.20;1.00;;;;;;5054415;28;20181;-79
2021/07/21 04:00:11;;;;;;;22.57;16.77;;;18.90;1.00;;;;;;5055263;28;20165;-79
2021/07/21 04:02:37;;;;;;;19.90;16.60;;;18.90;1.80;;;;;;5056730;28;20165;-79
2021/07/21 04:05:05;;;;;;;21.30;16.07;;;18.90;5.80;;;;;;5056647;28;20207;-80
2021/07/21 04:07:35;;;;;;;23.07;16.83;;;18.80;10.20;;;;;;5053649;28;20165;-79
2021/07/21 04:10:03;;;;;;;23.77;16.27;;;18.80;14.30;;;;;;5054380;28;20555;-80
2021/07/21 04:12:30;;;;;;;25.47;17.17;;;18.70;17.20;;;;;;5053767;28;20175;-80
2021/07/21 04:14:57;;;;;;;22.27;16.37;;;18.90;18.50;;;;;;5053293;28;20170;-80
2021/07/21 04:17:24;;;;;;;25.67;17.23;;;18.70;19.40;;;;;;5053843;28;20166;-79
2021/07/21 04:19:51;;;;;;;23.50;16.63;;;18.80;15.50;;;;;;5053121;28;20171;-80
2021/07/21 04:22:21;;;;;;;22.73;16.83;;;18.90;17.70;;;;;;5053596;28;20279;-79
2021/07/21 04:24:48;;;;;;;21.93;17.43;;;18.80;16.60;;;;;;5053366;28;20197;-79
2021/07/21 04:27:14;;;;;;;21.87;16.90;;;18.90;20.70;;;;;;5058913;28;20173;-80
2021/07/21 04:29:43;;;;;;;23.33;16.90;;;18.90;21.30;;;;;;5056923;28;20248;-80
2021/07/21 04:32:09;;;;;;;24.87;18.23;;;18.90;18.10;;;;;;5053119;28;20180;-79
2021/07/21 04:34:40;;;;;;;22.60;16.90;;;19.10;15.30;;;;;;5052929;28;20227;-82
2021/07/21 04:37:06;;;;;;;23.60;17.10;;;19.10;10.40;;;;;;5052033;28;20538;-79
2021/07/21 04:39:33;;;;;;;24.47;17.80;;;19.20;6.90;;;;;;5055585;28;20193;-79
2021/07/21 04:41:59;;;;;;;24.90;17.70;;;19.20;10.00;;;;;;5056720;28;20177;-80
2021/07/21 04:44:25;;;;;;;24.40;17.30;;;19.20;9.80;;;;;;5056925;28;20510;-79
2021/07/21 04:46:54;;;;;;;25.10;17.40;;;19.20;5.00;;;;;;5057106;28;20184;-79
2021/07/21 04:49:22;;;;;;;22.13;16.33;;;19.20;5.30;;;;;;5056506;28;20175;-79
2021/07/21 04:51:48;;;;;;;23.63;17.37;;;19.30;4.30;;;;;;5057211;28;20698;-79
2021/07/21 04:54:15;;;;;;;23.10;17.00;;;19.30;2.80;;;;;;5057137;28;20557;-78
2021/07/21 04:56:41;;;;;;;23.13;16.73;;;19.30;1.00;;;;;;5057885;28;20672;-81
2021/07/21 04:59:07;;;;;;;23.97;16.57;;;19.30;1.00;;;;;;5059646;28;20169;-79
2021/07/21 05:01:37;;;;;;;24.43;17.20;;;19.30;1.00;;;;;;5056353;28;20168;-80
2021/07/21 05:04:04;;;;;;;23.30;16.73;;;19.30;1.00;;;;;;5056871;28;20161;-79
2021/07/21 05:06:32;;;;;;;24.90;16.53;;;19.50;1.00;;;;;;5056527;28;20202;-80
2021/07/21 05:08:58;;;;;;;23.43;16.23;;;19.60;1.00;;;;;;5056700;28;20166;-80
2021/07/21 05:11:25;;;;;;;20.77;16.50;;;19.50;1.00;;;;;;5059586;28;20192;-79
2021/07/21 05:13:50;;;;;;;22.33;16.10;;;19.50;1.00;;;;;;5056782;28;20176;-78
2021/07/21 05:16:16;;;;;;;22.80;15.97;;;19.50;1.00;;;;;;5056230;28;20696;-80
2021/07/21 05:18:42;;;;;;;24.97;16.97;;;19.50;1.00;;;;;;5057777;28;20538;-80
2021/07/21 05:21:09;;;;;;;20.93;16.37;;;19.40;1.00;;;;;;5057228;28;20169;-80
2021/07/21 05:23:36;;;;;;;22.07;16.93;;;19.40;1.00;;;;;;5056327;28;20200;-79
2021/07/21 05:26:03;;;;;;;20.63;16.17;;;19.60;1.00;;;;;;5057059;28;20683;-79
2021/07/21 05:28:32;;;;;;;20.47;15.40;;;19.60;1.00;;;;;;5054595;28;20173;-79
2021/07/21 05:30:57;;;;;;;21.90;15.77;;;19.60;1.00;;;;;;5055354;28;20169;-79
2021/07/21 05:33:23;;;;;;;23.23;15.13;;;19.80;1.00;;;;;;5056857;28;20230;-79
2021/07/21 05:35:51;;;;;;;23.03;16.03;;;19.80;1.00;;;;;;5071976;28;20251;-80
2021/07/21 05:38:17;;;;;;;22.83;16.47;;;19.60;1.00;;;;;;5076131;28;20162;-77
2021/07/21 05:40:43;;;;;;;26.67;18.37;;;19.90;1.00;;;;;;5061280;28;20185;-79
2021/07/21 05:43:09;;;;;;;22.00;15.67;;;20.00;1.00;;;;;;5056642;28;20181;-78
2021/07/21 05:45:35;;;;;;;22.73;15.40;;;20.00;1.00;;;;;;5056815;28;20212;-80
2021/07/21 05:48:01;;;;;;;22.07;15.50;;;20.00;1.00;;;;;;5056647;28;20248;-79
2021/07/21 05:50:27;;;;;;;19.17;13.50;;;20.10;1.00;;;;;;5057439;28;20606;-79
2021/07/21 05:52:53;;;;;;;19.33;13.90;;;20.20;1.00;;;;;;5056395;28;20165;-79
2021/07/21 05:55:21;;;;;;;15.80;12.13;;;20.10;1.00;;;;;;5055364;28;20291;-80
2021/07/21 05:57:47;;;;;;;17.87;11.43;;;20.10;1.00;;;;;;5057114;28;20256;-79
2021/07/21 06:00:14;;;;;;;19.47;13.67;;;20.10;1.00;;;;;;5056724;28;20188;-81
2021/07/21 06:02:40;;;;;;;21.90;14.97;;;20.10;1.00;;;;;;5056888;28;20174;-80
2021/07/21 06:05:06;;;;;;;17.10;12.77;;;20.20;1.00;;;;;;5057033;28;20669;-80
2021/07/21 06:07:32;;;;;;;15.27;10.73;;;20.20;1.00;;;;;;5055384;28;20177;-79
2021/07/21 06:09:58;;;;;;;17.53;10.73;;;20.10;99.90;;;;;;5056304;28;20165;-81
2021/07/21 06:12:24;;;;;;;15.13;10.73;;;20.20;99.90;;;;;;5055977;28;20672;-81
2021/07/21 06:14:50;;;;;;;13.33;10.23;;;20.20;99.90;;;;;;5055612;28;20184;-79
2021/07/21 06:17:16;;;;;;;14.37;10.67;;;20.30;99.90;;;;;;5056255;28;20629;-77
2021/07/21 06:19:43;;;;;;;16.03;11.70;;;20.40;1.00;;;;;;5055125;28;20157;-78
2021/07/21 06:22:09;;;;;;;13.73;10.60;;;20.50;99.90;;;;;;5056215;28;20177;-80
2021/07/21 06:24:35;;;;;;;16.60;11.47;;;20.60;99.90;;;;;;5054670;28;20205;-79
2021/07/21 06:27:02;;;;;;;15.80;10.07;;;20.70;99.90;;;;;;5054620;28;20186;-78
2021/07/21 06:29:29;;;;;;;14.97;9.87;;;20.70;1.00;;;;;;5054802;28;20622;-80
2021/07/21 06:31:55;;;;;;;13.47;10.00;;;20.80;1.00;;;;;;5057324;28;20224;-79
2021/07/21 06:34:20;;;;;;;15.93;10.10;;;20.80;1.00;;;;;;5058630;28;20226;-80
2021/07/21 06:36:46;;;;;;;14.13;9.50;;;20.80;99.90;;;;;;5055508;28;20174;-81
2021/07/21 06:39:13;;;;;;;12.40;8.70;;;20.90;99.90;;;;;;5057804;28;20231;-81
2021/07/21 06:41:38;;;;;;;13.63;8.60;;;21.00;1.00;;;;;;5056546;28;20202;-80
2021/07/21 06:44:05;;;;;;;12.77;9.20;;;21.00;99.90;;;;;;5056008;28;20178;-81
2021/07/21 06:46:32;;;;;;;13.13;8.90;;;21.10;1.00;;;;;;5057147;28;20709;-80
2021/07/21 06:48:59;;;;;;;12.00;9.07;;;21.10;99.90;;;;;;5054892;28;20212;-80
2021/07/21 06:51:25;;;;;;;12.20;8.40;;;21.20;1.00;;;;;;5055311;28;20179;-80
2021/07/21 06:53:51;;;;;;;12.93;9.80;;;21.40;1.00;;;;;;5054892;28;20179;-79
2021/07/21 06:56:17;;;;;;;12.50;9.00;;;21.30;1.00;;;;;;5054365;28;20217;-80
2021/07/21 06:58:43;;;;;;;14.33;9.40;;;21.40;1.00;;;;;;5054252;28;20171;-80
2021/07/21 07:01:09;;;;;;;10.23;8.10;;;21.50;99.90;;;;;;5054561;28;20209;-81
2021/07/21 07:03:35;;;;;;;12.30;8.70;;;21.50;1.00;;;;;;5058955;28;20176;-79
2021/07/21 07:06:02;;;;;;;10.87;7.37;;;21.50;1.00;;;;;;5058940;28;20210;-78
2021/07/21 07:08:29;;;;;;;10.90;8.13;;;21.60;1.00;;;;;;5054306;28;20632;-79
2021/07/21 07:10:56;;;;;;;9.50;7.40;;;21.60;1.00;;;;;;5054939;28;20168;-82
2021/07/21 07:13:21;;;;;;;8.30;5.97;;;21.60;99.90;;;;;;5056433;28;20213;-80
2021/07/21 07:15:50;;;;;;;11.80;6.60;;;21.80;1.00;;;;;;5060921;28;20248;-79
2021/07/21 07:18:17;;;;;;;8.70;6.40;;;21.80;5.10;;;;;;5073890;28;20179;-81
2021/07/21 07:20:43;;;;;;;9.30;6.47;;;21.90;5.10;;;;;;5074187;28;20171;-79
2021/07/21 07:23:09;;;;;;;7.87;6.03;;;21.80;99.90;;;;;;5075328;28;20191;-80
2021/07/21 07:25:36;;;;;;;8.80;6.37;;;22.00;1.00;;;;;;5077327;28;20638;-82
2021/07/21 07:28:01;;;;;;;8.50;6.37;;;22.10;99.90;;;;;;5077341;28;20228;-80
2021/07/21 07:30:27;;;;;;;11.50;6.50;;;22.20;1.00;;;;;;5072217;28;20245;-79
2021/07/21 07:32:53;;;;;;;9.70;6.67;;;22.20;1.00;;;;;;5073945;28;20643;-80
2021/07/21 07:35:18;;;;;;;8.33;6.63;;;22.30;99.90;;;;;;5073853;28;20174;-81
2021/07/21 07:37:44;;;;;;;9.83;6.60;;;22.20;99.90;;;;;;5072423;28;20164;-79
2021/07/21 07:40:11;;;;;;;9.60;6.43;;;22.30;99.90;;;;;;5072184;28;20183;-82
2021/07/21 07:42:36;;;;;;;10.20;6.57;;;22.50;99.90;;;;;;5071542;28;20218;-79
2021/07/21 07:45:05;;;;;;;8.73;5.97;;;22.70;1.00;;;;;;5071271;28;20205;-82
2021/07/21 07:47:32;;;;;;;12.27;7.43;;;22.50;1.00;;;;;;5072933;28;20176;-81
2021/07/21 07:49:59;;;;;;;8.97;6.60;;;22.70;1.00;;;;;;5074251;28;20639;-79
2021/07/21 07:52:25;;;;;;;10.70;6.27;;;23.00;99.90;;;;;;5072242;28;20262;-80
2021/07/21 07:54:51;;;;;;;11.03;7.23;;;23.00;93.30;;;;;;5072813;28;20256;-79
2021/07/21 07:57:17;;;;;;;12.43;7.93;;;22.80;99.90;;;;;;5072538;28;20175;-81
2021/07/21 07:59:43;;;;;;;10.73;8.30;;;22.70;1.00;;;;;;5071649;28;20182;-79
2021/07/21 08:02:09;;;;;;;12.13;8.23;;;22.60;99.90;;;;;;5072668;28;20582;-80
2021/07/21 08:04:35;;;;;;;11.70;8.20;;;22.50;99.90;;;;;;5072406;28;20172;-80
2021/07/21 08:07:00;;;;;;;12.00;8.57;;;22.50;99.90;;;;;;5072817;28;20310;-80
2021/07/21 08:09:26;;;;;;;14.43;7.73;;;22.50;99.90;;;;;;5071252;28;20704;-80
2021/07/21 08:11:54;;;;;;;17.77;8.27;;;22.70;1.00;;;;;;5072347;28;20179;-80
2021/07/21 08:14:20;;;;;;;13.63;7.97;;;22.70;99.90;;;;;;5073357;28;20169;-79
2021/07/21 08:16:50;;;;;;;11.50;7.60;;;22.80;99.90;;;;;;5076446;28;20194;-78
2021/07/21 08:19:16;;;;;;;11.27;8.07;;;23.00;99.90;;;;;;5076154;28;20568;-79
2021/07/21 08:21:43;;;;;;;11.57;8.57;;;23.20;1.00;;;;;;5076257;28;20547;-79
2021/07/21 08:24:08;;;;;;;13.00;9.77;;;23.20;1.00;;;;;;5074478;28;20731;-80
2021/07/21 08:26:34;;;;;;;10.40;7.97;;;23.20;1.00;;;;;;5076063;28;20300;-79
2021/07/21 08:29:01;;;;;;;14.60;8.63;;;23.20;1.00;;;;;;5074964;28;20180;-80
2021/07/21 08:31:27;;;;;;;12.30;8.23;;;23.30;1.00;;;;;;5084065;28;20164;-80
2021/07/21 08:33:53;;;;;;;12.10;8.17;;;23.20;50.80;;;;;;5086690;28;20236;-79
2021/07/21 08:36:19;;;;;;;11.20;8.10;;;23.10;1.00;;;;;;5085963;28;20169;-79
2021/07/21 08:38:44;;;;;;;12.47;7.43;;;23.10;35.40;;;;;;5088003;28;20181;-79
2021/07/21 08:41:11;;;;;;;12.13;8.23;;;23.20;1.00;;;;;;5083976;28;20160;-79
2021/07/21 08:43:37;;;;;;;9.87;7.43;;;23.40;1.00;;;;;;5076877;28;20180;-80
2021/07/21 08:46:04;;;;;;;10.23;7.60;;;23.80;1.00;;;;;;5076342;28;20318;-81
2021/07/21 08:48:30;;;;;;;10.17;7.73;;;23.80;1.00;;;;;;5077372;28;20970;-80
2021/07/21 08:50:56;;;;;;;14.20;8.20;;;24.10;99.90;;;;;;5076684;28;20175;-79
2021/07/21 08:53:22;;;;;;;11.63;7.73;;;24.20;99.90;;;;;;5075083;28;20182;-79
2021/07/21 08:55:49;;;;;;;10.33;7.63;;;24.10;99.90;;;;;;5075179;28;20196;-80
2021/07/21 08:58:18;;;;;;;9.83;7.77;;;24.00;99.90;;;;;;5074368;28;20233;-80
2021/07/21 09:00:44;;;;;;;12.10;7.67;;;23.80;99.90;;;;;;5075459;28;20253;-80
2021/07/21 09:03:11;;;;;;;12.27;7.77;;;23.80;99.90;;;;;;5075613;28;20697;-80
2021/07/21 09:05:37;;;;;;;10.70;7.50;;;23.80;99.90;;;;;;5075513;28;20214;-81
2021/07/21 09:08:04;;;;;;;12.70;8.60;;;23.70;99.90;;;;;;5075326;28;20169;-80
2021/07/21 09:10:31;;;;;;;11.93;8.17;;;23.70;1.00;;;;;;5075711;28;20182;-80
2021/07/21 09:13:02;;;;;;;12.73;7.97;;;23.50;99.90;;;;;;5074474;28;20303;-80
2021/07/21 09:15:27;;;;;;;11.13;8.87;;;23.40;1.00;;;;;;5074172;28;20207;-79
2021/07/21 09:17:59;;;;;;;12.03;8.53;;;23.60;1.00;;;;;;5075437;28;20662;-81
2021/07/21 09:20:25;;;;;;;10.73;8.33;;;23.50;1.00;;;;;;5075503;28;20175;-80
2021/07/21 09:22:55;;;;;;;11.00;8.80;;;23.60;99.90;;;;;;5073636;28;20577;-80
2021/07/21 09:25:26;;;;;;;12.63;8.47;;;23.40;99.90;;;;;;5074330;28;20270;-79
2021/07/21 09:27:58;;;;;;;13.27;9.37;;;23.50;99.90;;;;;;5073965;28;20169;-81
2021/07/21 09:30:33;;;;;;;10.80;8.40;;;23.30;99.90;;;;;;5074958;28;20173;-80
2021/07/21 09:33:15;;;;;;;11.53;8.97;;;23.30;99.90;;;;;;5076732;28;20168;-79
2021/07/21 09:35:43;;;;;;;12.47;9.47;;;23.30;99.90;;;;;;5075412;28;20175;-81
2021/07/21 09:38:18;;;;;;;13.37;9.47;;;23.50;99.90;;;;;;5075133;28;20166;-79
2021/07/21 09:40:47;;;;;;;13.37;9.20;;;23.70;99.90;;;;;;5077723;28;20176;-79
2021/07/21 09:43:15;;;;;;;12.67;9.27;;;23.70;99.90;;;;;;5084882;28;20173;-78
2021/07/21 09:45:42;;;;;;;11.83;9.23;;;23.80;1.00;;;;;;5083009;28;20205;-80
2021/07/21 09:48:08;;;;;;;11.40;9.50;;;23.80;99.90;;;;;;5078226;28;20283;-80
2021/07/21 09:50:36;;;;;;;12.27;9.10;;;23.90;99.90;;;;;;5074698;28;20173;-80
2021/07/21 09:53:06;;;;;;;13.63;9.97;;;23.80;99.90;;;;;;5077277;28;20244;-81
2021/07/21 09:55:35;;;;;;;12.13;10.23;;;23.80;99.90;;;;;;5076107;28;20185;-79
2021/07/21 09:58:13;;;;;;;14.83;9.73;;;23.90;99.90;;;;;;5073514;28;20178;-79
2021/07/21 10:00:42;;;;;;;10.97;8.80;;;24.00;99.90;;;;;;5082318;28;20178;-80
2021/07/21 10:03:07;;;;;;;13.23;9.73;;;24.00;99.90;;;;;;5086583;28;20171;-79
2021/07/21 10:05:33;;;;;;;13.80;9.80;;;24.00;99.90;;;;;;5076859;28;20274;-80
2021/07/21 10:08:03;;;;;;;14.70;9.17;;;24.10;89.60;;;;;;5074619;28;20168;-80
2021/07/21 10:10:29;;;;;;;12.87;8.77;;;24.00;99.90;;;;;;5074645;28;20186;-80
2021/07/21 10:13:06;;;;;;;12.67;10.10;;;24.00;99.90;;;;;;5074534;28;20206;-79
2021/07/21 10:15:33;;;;;;;11.03;9.00;;;23.90;99.90;;;;;;5073098;28;20522;-80
2021/07/21 10:18:05;;;;;;;11.80;9.40;;;24.10;99.90;;;;;;5087205;28;20258;-79
2021/07/21 10:20:31;;;;;;;11.60;9.77;;;24.40;1.00;;;;;;5088981;28;20212;-80
2021/07/21 10:22:57;;;;;;;12.57;9.50;;;24.30;1.00;;;;;;5089562;28;20661;-79
2021/07/21 10:25:24;;;;;;;12.47;8.93;;;24.20;1.00;;;;;;5084980;28;20204;-80
2021/07/21 10:27:50;;;;;;;11.27;8.60;;;24.00;1.00;;;;;;5074019;28;20170;-80
2021/07/21 10:30:16;;;;;;;14.37;9.30;;;23.80;1.00;;;;;;5073959;28;20169;-80
2021/07/21 10:32:44;;;;;;;11.40;8.83;;;23.90;99.90;;;;;;5072815;28;20168;-79
2021/07/21 10:35:10;;;;;;;10.40;8.60;;;23.80;1.00;;;;;;5073532;28;20191;-80
2021/07/21 10:37:39;;;;;;;13.53;9.70;;;24.00;1.00;;;;;;5072844;28;20189;-79
2021/07/21 10:40:06;;;;;;;10.67;8.50;;;24.10;1.00;;;;;;5073902;28;20161;-80
2021/07/21 10:42:32;;;;;;;11.00;8.93;;;24.00;6.30;;;;;;5072418;28;20172;-79
2021/07/21 10:45:13;;;;;;;10.80;8.90;;;24.10;99.90;;;;;;5072323;28;20204;-79
2021/07/21 10:47:50;;;;;;;11.03;9.03;;;24.30;99.90;;;;;;5074229;28;20173;-79
2021/07/21 10:59:23;;;;;;;13.60;9.30;;;24.50;1.00;;;;;;5072448;28;20210;-79
2021/07/21 11:01:59;;;;;;;15.77;9.27;;;24.40;1.00;;;;;;5064709;28;20206;-79
2021/07/21 11:04:41;;;;;;;12.30;8.97;;;24.30;1.00;;;;;;5072503;28;20170;-79
2021/07/21 11:07:07;;;;;;;10.30;8.33;;;24.60;1.70;;;;;;5072761;28;20627;-81
2021/07/21 11:09:34;;;;;;;12.10;8.93;;;24.60;1.00;;;;;;5070878;28;20180;-78
2021/07/21 11:12:01;;;;;;;14.20;9.40;;;24.70;1.00;;;;;;5075975;28;20172;-80
2021/07/21 11:14:33;;;;;;;13.37;9.63;;;24.70;1.00;;;;;;5072177;28;20186;-79
2021/07/21 11:17:07;;;;;;;11.80;7.80;;;24.70;28.50;;;;;;5087578;28;20696;-81
2021/07/21 11:19:35;;;;;;;10.00;8.33;;;24.80;1.00;;;;;;5077318;28;20178;-81
2021/07/21 11:22:08;;;;;;;10.57;8.80;;;24.80;1.00;;;;;;5083383;28;20565;-79
2021/07/21 11:25:09;;;;;;;12.00;8.20;;;24.80;1.00;;;;;;5073637;28;20654;-79
2021/07/21 11:27:43;;;;;;;11.03;8.70;;;24.80;1.00;;;;;;5074158;28;20280;-79
2021/07/21 11:30:44;;;;;;;11.13;8.10;;;24.60;1.00;;;;;;5089261;28;20173;-79
2021/07/21 11:33:43;;;;;;;11.07;8.70;;;24.50;1.00;;;;;;5061169;28;20177;-80
2021/07/21 11:36:10;;;;;;;10.80;8.57;;;24.40;1.00;;;;;;5053000;28;20168;-80
2021/07/21 11:38:52;;;;;;;10.60;8.47;;;24.50;1.00;;;;;;5057679;28;20634;-80
2021/07/21 11:41:49;;;;;;;9.50;7.90;;;24.40;1.00;;;;;;5072560;28;20167;-79
2021/07/21 11:44:33;;;;;;;10.23;8.40;;;24.60;1.00;;;;;;5071694;28;20277;-79
2021/07/21 11:47:00;;;;;;;11.17;8.27;;;24.70;1.00;;;;;;5087575;28;20206;-80
2021/07/21 11:49:29;;;;;;;10.13;8.30;;;24.70;1.00;;;;;;5078968;28;20171;-78
2021/07/21 11:52:05;;;;;;;10.43;8.20;;;24.80;1.00;;;;;;5079214;28;20578;-80
2021/07/21 11:54:32;;;;;;;10.37;7.87;;;24.70;1.00;;;;;;5079037;28;20264;-79
2021/07/21 11:56:59;;;;;;;11.07;8.50;;;25.00;1.00;;;;;;5079473;28;20715;-78
2021/07/21 11:59:30;;;;;;;10.30;8.27;;;25.30;1.00;;;;;;5078999;28;20155;-80
2021/07/21 12:02:02;;;;;;;10.73;7.87;;;25.30;1.00;;;;;;5077687;28;20255;-79
2021/07/21 12:04:31;;;;;;;10.30;8.17;;;25.30;1.00;;;;;;5078884;28;20228;-79
2021/07/21 12:06:58;;;;;;;9.00;7.03;;;25.00;1.00;;;;;;5077735;28;20293;-79
2021/07/21 12:09:28;;;;;;;10.33;8.03;;;24.80;1.00;;;;;;5077614;28;20174;-80
2021/07/21 12:11:57;;;;;;;9.57;7.73;;;24.80;1.00;;;;;;5078061;28;20181;-81
2021/07/21 12:14:24;;;;;;;9.47;7.47;;;25.10;1.00;;;;;;5078251;28;20172;-79
2021/07/21 12:16:52;;;;;;;8.43;7.07;;;25.10;1.00;;;;;;5079287;28;20292;-79
2021/07/21 12:19:24;;;;;;;10.37;7.23;;;25.20;1.00;;;;;;5079283;28;20171;-79
2021/07/21 12:21:59;;;;;;;10.63;7.70;;;25.00;1.00;;;;;;5079712;28;20216;-80
2021/07/21 12:24:37;;;;;;;10.10;7.43;;;24.90;1.00;;;;;;5079320;28;20612;-80
2021/07/21 12:27:03;;;;;;;11.30;7.73;;;24.90;1.00;;;;;;5078826;28;20191;-79
2021/07/21 12:29:29;;;;;;;10.57;7.93;;;25.00;1.00;;;;;;5078831;28;20187;-80
2021/07/21 12:32:13;;;;;;;9.60;8.17;;;24.90;1.00;;;;;;5079175;28;20171;-80
2021/07/21 12:34:42;;;;;;;9.57;8.27;;;25.10;1.00;;;;;;5078985;28;20163;-80
2021/07/21 12:37:16;;;;;;;10.77;7.63;;;25.40;1.00;;;;;;5077627;28;20183;-82
2021/07/21 12:39:44;;;;;;;10.87;7.83;;;25.20;1.00;;;;;;5077934;28;20171;-81
2021/07/21 12:42:20;;;;;;;11.27;7.70;;;25.20;1.00;;;;;;5079519;28;20570;-81
2021/07/21 12:45:13;;;;;;;10.63;7.37;;;25.40;1.00;;;;;;5077683;28;20269;-82
2021/07/21 12:47:43;;;;;;;11.20;7.80;;;25.50;1.00;;;;;;5078332;28;20188;-81
2021/07/21 12:50:13;;;;;;;7.60;6.67;;;25.60;1.00;;;;;;5079609;28;20167;-80
2021/07/21 12:52:51;;;;;;;9.53;7.80;;;25.60;1.00;;;;;;5078769;28;20639;-79
2021/07/21 12:55:29;;;;;;;8.93;7.70;;;25.50;1.00;;;;;;5079150;28;20558;-81
2021/07/21 12:57:58;;;;;;;8.83;7.50;;;25.40;1.00;;;;;;5082910;28;20206;-80